sensor_id;sensor_type;location;lat;lon;timestamp;temperature;humidity
7028;DHT22;3555;53.248;10.336;2023-05-16T00:01:10;12.10;1.00
7028;DHT22;3555;53.248;10.336;2023-05-16T00:03:38;12.10;1.00
7028;DHT22;3555;53.248;10.336;2023-05-16T00:06:06;12.00;47.60
7028;DHT22;3555;53.248;10.336;2023-05-16T00:08:33;12.00;99.90
7028;DHT22;3555;53.248;10.336;2023-05-16T00:11:00;12.10;8.60
7028;DHT22;3555;53.248;10.336;2023-05-16T00:13:28;12.20;1.00
7028;DHT22;3555;53.248;10.336;2023-05-16T00:15:55;12.30;1.00
7028;DHT22;3555;53.248;10.336;2023-05-16T00:18:22;12.40;1.00
7028;DHT22;3555;53.248;10.336;2023-05-16T00:20:53;12.40;1.00
7028;DHT22;3555;53.248;10.336;2023-05-16T00:23:20;12.40;1.00
7028;DHT22;3555;53.248;10.336;2023-05-16T00:25:47;12.30;1.00
7028;DHT22;3555;53.248;10.336;2023-05-16T00:28:14;12.40;1.00
7028;DHT22;3555;53.248;10.336;2023-05-16T00:30:41;12.50;1.00
7028;DHT22;3555;53.248;10.336;2023-05-16T00:33:08;12.50;1.00
7028;DHT22;3555;53.248;10.336;2023-05-16T00:35:35;12.50;1.00
7028;DHT22;3555;53.248;10.336;2023-05-16T00:38:03;12.50;1.00
7028;DHT22;3555;53.248;10.336;2023-05-16T00:40:30;12.40;1.00
7028;DHT22;3555;53.248;10.336;2023-05-16T00:42:57;12.30;1.00
7028;DHT22;3555;53.248;10.336;2023-05-16T00:45:24;12.30;1.00
7028;DHT22;3555;53.248;10.336;2023-05-16T00:47:51;12.30;1.00
7028;DHT22;3555;53.248;10.336;2023-05-16T00:50:18;12.20;1.00
7028;DHT22;3555;53.248;10.336;2023-05-16T00:52:45;12.30;1.00
7028;DHT22;3555;53.248;10.336;2023-05-16T00:55:14;12.30;1.00
7028;DHT22;3555;53.248;10.336;2023-05-16T00:57:41;12.30;1.00
7028;DHT22;3555;53.248;10.336;2023-05-16T01:00:08;12.40;1.00
7028;DHT22;3555;53.248;10.336;2023-05-16T01:02:36;12.40;1.00
7028;DHT22;3555;53.248;10.336;2023-05-16T01:05:04;12.40;1.00
7028;DHT22;3555;53.248;10.336;2023-05-16T01:07:31;12.40;1.00
7028;DHT22;3555;53.248;10.336;2023-05-16T01:09:58;12.40;1.00
7028;DHT22;3555;53.248;10.336;2023-05-16T01:12:33;12.40;1.00
7028;DHT22;3555;53.248;10.336;2023-05-16T01:15:04;12.30;1.00
7028;DHT22;3555;53.248;10.336;2023-05-16T01:17:41;12.30;1.00
7028;DHT22;3555;53.248;10.336;2023-05-16T01:20:15;12.20;1.00
7028;DHT22;3555;53.248;10.336;2023-05-16T01:23:04;12.30;1.00
7028;DHT22;3555;53.248;10.336;2023-05-16T01:25:43;12.20;1.00
7028;DHT22;3555;53.248;10.336;2023-05-16T01:28:15;12.10;96.10
7028;DHT22;3555;53.248;10.336;2023-05-16T01:30:42;12.10;99.90
7028;DHT22;3555;53.248;10.336;2023-05-16T01:33:09;12.10;99.90
7028;DHT22;3555;53.248;10.336;2023-05-16T01:35:42;12.00;99.90
7028;DHT22;3555;53.248;10.336;2023-05-16T01:38:15;12.10;99.90
7028;DHT22;3555;53.248;10.336;2023-05-16T01:40:47;12.10;99.90
7028;DHT22;3555;53.248;10.336;2023-05-16T01:43:24;12.20;99.90
7028;DHT22;3555;53.248;10.336;2023-05-16T01:45:59;12.20;56.50
7028;DHT22;3555;53.248;10.336;2023-05-16T01:48:31;12.40;1.00
7028;DHT22;3555;53.248;10.336;2023-05-16T01:51:01;12.50;1.00
7028;DHT22;3555;53.248;10.336;2023-05-16T01:53:34;12.50;1.00
7028;DHT22;3555;53.248;10.336;2023-05-16T01:56:03;12.40;1.00
7028;DHT22;3555;53.248;10.336;2023-05-16T01:58:33;12.50;1.00
7028;DHT22;3555;53.248;10.336;2023-05-16T02:01:02;12.50;1.00
7028;DHT22;3555;53.248;10.336;2023-05-16T02:03:29;12.60;1.00
7028;DHT22;3555;53.248;10.336;2023-05-16T02:05:56;12.60;1.00
7028;DHT22;3555;53.248;10.336;2023-05-16T02:08:23;12.60;1.00
7028;DHT22;3555;53.248;10.336;2023-05-16T02:10:51;12.60;1.00
7028;DHT22;3555;53.248;10.336;2023-05-16T02:13:18;12.60;1.00
7028;DHT22;3555;53.248;10.336;2023-05-16T02:15:46;12.60;1.00
7028;DHT22;3555;53.248;10.336;2023-05-16T02:18:13;12.50;1.00
7028;DHT22;3555;53.248;10.336;2023-05-16T02:20:40;12.30;1.00
7028;DHT22;3555;53.248;10.336;2023-05-16T02:23:07;12.30;28.60
7028;DHT22;3555;53.248;10.336;2023-05-16T02:25:34;12.30;99.90
7028;DHT22;3555;53.248;10.336;2023-05-16T02:28:01;12.10;99.90
7028;DHT22;3555;53.248;10.336;2023-05-16T02:30:28;12.20;99.90
7028;DHT22;3555;53.248;10.336;2023-05-16T02:32:56;12.20;1.00
7028;DHT22;3555;53.248;10.336;2023-05-16T02:35:23;12.10;1.00
7028;DHT22;3555;53.248;10.336;2023-05-16T02:37:50;12.10;1.00
7028;DHT22;3555;53.248;10.336;2023-05-16T02:40:17;12.20;1.00
7028;DHT22;3555;53.248;10.336;2023-05-16T02:42:44;12.10;1.00
7028;DHT22;3555;53.248;10.336;2023-05-16T02:45:11;12.10;99.90
7028;DHT22;3555;53.248;10.336;2023-05-16T02:47:38;12.20;1.00
7028;DHT22;3555;53.248;10.336;2023-05-16T02:50:07;12.20;99.90
7028;DHT22;3555;53.248;10.336;2023-05-16T02:52:34;12.30;99.90
7028;DHT22;3555;53.248;10.336;2023-05-16T02:55:00;12.30;16.40
7028;DHT22;3555;53.248;10.336;2023-05-16T02:57:27;12.30;1.00
7028;DHT22;3555;53.248;10.336;2023-05-16T02:59:54;12.30;1.00
7028;DHT22;3555;53.248;10.336;2023-05-16T03:02:21;12.20;1.00
7028;DHT22;3555;53.248;10.336;2023-05-16T03:04:48;12.20;1.00
7028;DHT22;3555;53.248;10.336;2023-05-16T03:07:16;12.20;99.90
7028;DHT22;3555;53.248;10.336;2023-05-16T03:09:43;12.10;99.90
7028;DHT22;3555;53.248;10.336;2023-05-16T03:12:10;12.10;99.90
7028;DHT22;3555;53.248;10.336;2023-05-16T03:14:37;12.10;99.90
7028;DHT22;3555;53.248;10.336;2023-05-16T03:17:03;12.10;1.00
7028;DHT22;3555;53.248;10.336;2023-05-16T03:19:30;12.10;99.90
7028;DHT22;3555;53.248;10.336;2023-05-16T03:21:57;11.90;1.00
7028;DHT22;3555;53.248;10.336;2023-05-16T03:24:26;11.90;1.00
7028;DHT22;3555;53.248;10.336;2023-05-16T03:26:52;11.80;1.00
7028;DHT22;3555;53.248;10.336;2023-05-16T03:29:19;11.90;1.00
7028;DHT22;3555;53.248;10.336;2023-05-16T03:31:46;11.90;1.00
7028;DHT22;3555;53.248;10.336;2023-05-16T03:34:13;11.90;1.00
7028;DHT22;3555;53.248;10.336;2023-05-16T03:36:40;11.90;99.90
7028;DHT22;3555;53.248;10.336;2023-05-16T03:39:07;12.00;99.90
7028;DHT22;3555;53.248;10.336;2023-05-16T03:41:35;12.00;1.00
7028;DHT22;3555;53.248;10.336;2023-05-16T03:44:02;12.00;1.00
7028;DHT22;3555;53.248;10.336;2023-05-16T03:46:29;12.00;1.00
7028;DHT22;3555;53.248;10.336;2023-05-16T03:48:56;12.00;1.00
7028;DHT22;3555;53.248;10.336;2023-05-16T03:51:23;12.10;1.00
7028;DHT22;3555;53.248;10.336;2023-05-16T03:53:50;12.00;1.00
7028;DHT22;3555;53.248;10.336;2023-05-16T03:56:17;12.10;99.90
7028;DHT22;3555;53.248;10.336;2023-05-16T03:58:45;12.10;99.90
7028;DHT22;3555;53.248;10.336;2023-05-16T04:01:12;12.20;99.90
7028;DHT22;3555;53.248;10.336;2023-05-16T04:03:39;12.10;99.90
7028;DHT22;3555;53.248;10.336;2023-05-16T04:06:06;12.00;99.90
7028;DHT22;3555;53.248;10.336;2023-05-16T04:08:33;12.10;99.90
7028;DHT22;3555;53.248;10.336;2023-05-16T04:11:00;12.00;1.00
7028;DHT22;3555;53.248;10.336;2023-05-16T04:13:27;12.00;99.90
7028;DHT22;3555;53.248;10.336;2023-05-16T04:15:55;11.90;99.90
7028;DHT22;3555;53.248;10.336;2023-05-16T04:18:22;12.00;99.90
7028;DHT22;3555;53.248;10.336;2023-05-16T04:20:49;12.00;99.90
7028;DHT22;3555;53.248;10.336;2023-05-16T04:23:15;12.00;99.90
7028;DHT22;3555;53.248;10.336;2023-05-16T04:25:42;12.10;99.90
7028;DHT22;3555;53.248;10.336;2023-05-16T04:28:10;11.90;99.90
7028;DHT22;3555;53.248;10.336;2023-05-16T04:30:38;11.90;99.90
7028;DHT22;3555;53.248;10.336;2023-05-16T04:33:06;11.90;99.90
7028;DHT22;3555;53.248;10.336;2023-05-16T04:35:33;11.90;99.90
7028;DHT22;3555;53.248;10.336;2023-05-16T04:38:00;11.90;99.90
7028;DHT22;3555;53.248;10.336;2023-05-16T04:40:26;11.80;99.90
7028;DHT22;3555;53.248;10.336;2023-05-16T04:42:53;11.70;99.90
7028;DHT22;3555;53.248;10.336;2023-05-16T04:45:20;11.60;99.90
7028;DHT22;3555;53.248;10.336;2023-05-16T04:47:47;11.60;99.90
7028;DHT22;3555;53.248;10.336;2023-05-16T04:50:15;11.50;99.90
7028;DHT22;3555;53.248;10.336;2023-05-16T04:52:42;11.60;99.90
7028;DHT22;3555;53.248;10.336;2023-05-16T04:55:10;11.50;99.90
7028;DHT22;3555;53.248;10.336;2023-05-16T04:57:37;11.50;99.90
7028;DHT22;3555;53.248;10.336;2023-05-16T05:00:05;11.60;99.90
7028;DHT22;3555;53.248;10.336;2023-05-16T05:02:35;11.50;99.90
7028;DHT22;3555;53.248;10.336;2023-05-16T05:05:02;11.50;1.00
7028;DHT22;3555;53.248;10.336;2023-05-16T05:07:31;11.50;1.00
7028;DHT22;3555;53.248;10.336;2023-05-16T05:09:58;11.50;1.00
7028;DHT22;3555;53.248;10.336;2023-05-16T05:12:25;11.30;1.00
7028;DHT22;3555;53.248;10.336;2023-05-16T05:14:53;11.30;1.00
7028;DHT22;3555;53.248;10.336;2023-05-16T05:17:20;11.40;1.00
7028;DHT22;3555;53.248;10.336;2023-05-16T05:19:47;11.30;1.00
7028;DHT22;3555;53.248;10.336;2023-05-16T05:22:14;11.30;1.00
7028;DHT22;3555;53.248;10.336;2023-05-16T05:24:42;11.20;1.00
7028;DHT22;3555;53.248;10.336;2023-05-16T05:27:09;11.20;1.00
7028;DHT22;3555;53.248;10.336;2023-05-16T05:29:36;11.20;1.00
7028;DHT22;3555;53.248;10.336;2023-05-16T05:32:03;11.10;1.00
7028;DHT22;3555;53.248;10.336;2023-05-16T05:34:30;11.20;1.00
7028;DHT22;3555;53.248;10.336;2023-05-16T05:36:57;11.20;1.00
7028;DHT22;3555;53.248;10.336;2023-05-16T05:39:24;11.20;1.00
7028;DHT22;3555;53.248;10.336;2023-05-16T05:41:52;11.20;1.00
7028;DHT22;3555;53.248;10.336;2023-05-16T05:44:19;11.30;1.00
7028;DHT22;3555;53.248;10.336;2023-05-16T05:46:46;11.40;1.00
7028;DHT22;3555;53.248;10.336;2023-05-16T05:49:13;11.60;1.00
7028;DHT22;3555;53.248;10.336;2023-05-16T05:51:40;11.50;1.00
7028;DHT22;3555;53.248;10.336;2023-05-16T05:54:07;11.50;1.00
7028;DHT22;3555;53.248;10.336;2023-05-16T05:56:34;11.70;1.00
7028;DHT22;3555;53.248;10.336;2023-05-16T05:59:02;12.00;1.00
7028;DHT22;3555;53.248;10.336;2023-05-16T06:01:29;12.10;1.00
7028;DHT22;3555;53.248;10.336;2023-05-16T06:03:56;12.30;99.90
7028;DHT22;3555;53.248;10.336;2023-05-16T06:06:23;12.20;99.90
7028;DHT22;3555;53.248;10.336;2023-05-16T06:08:49;12.30;99.90
7028;DHT22;3555;53.248;10.336;2023-05-16T06:11:17;12.30;99.90
7028;DHT22;3555;53.248;10.336;2023-05-16T06:13:44;12.20;99.90
7028;DHT22;3555;53.248;10.336;2023-05-16T06:16:12;12.30;99.90
7028;DHT22;3555;53.248;10.336;2023-05-16T06:18:39;12.60;99.90
7028;DHT22;3555;53.248;10.336;2023-05-16T06:21:06;12.50;99.90
7028;DHT22;3555;53.248;10.336;2023-05-16T06:23:33;12.60;99.90
7028;DHT22;3555;53.248;10.336;2023-05-16T06:26:00;12.80;99.90
7028;DHT22;3555;53.248;10.336;2023-05-16T06:28:27;13.00;99.90
7028;DHT22;3555;53.248;10.336;2023-05-16T06:30:54;13.30;99.90
7028;DHT22;3555;53.248;10.336;2023-05-16T06:33:22;13.60;99.90
7028;DHT22;3555;53.248;10.336;2023-05-16T06:35:49;13.80;24.00
7028;DHT22;3555;53.248;10.336;2023-05-16T06:38:17;14.00;41.70
7028;DHT22;3555;53.248;10.336;2023-05-16T06:40:44;14.30;1.00
7028;DHT22;3555;53.248;10.336;2023-05-16T06:43:11;14.60;1.00
7028;DHT22;3555;53.248;10.336;2023-05-16T06:45:38;14.70;1.00
7028;DHT22;3555;53.248;10.336;2023-05-16T06:48:06;14.90;1.00
7028;DHT22;3555;53.248;10.336;2023-05-16T06:50:34;14.80;1.00
7028;DHT22;3555;53.248;10.336;2023-05-16T06:53:01;14.90;1.00
7028;DHT22;3555;53.248;10.336;2023-05-16T06:55:29;14.70;1.00
7028;DHT22;3555;53.248;10.336;2023-05-16T06:57:56;14.80;1.00
7028;DHT22;3555;53.248;10.336;2023-05-16T07:00:23;14.90;1.00
7028;DHT22;3555;53.248;10.336;2023-05-16T07:02:50;15.10;1.00
7028;DHT22;3555;53.248;10.336;2023-05-16T07:05:17;15.00;1.00
7028;DHT22;3555;53.248;10.336;2023-05-16T07:07:46;15.20;1.00
7028;DHT22;3555;53.248;10.336;2023-05-16T07:10:14;15.30;1.00
7028;DHT22;3555;53.248;10.336;2023-05-16T07:12:41;15.10;1.00
7028;DHT22;3555;53.248;10.336;2023-05-16T07:15:09;14.90;1.00
7028;DHT22;3555;53.248;10.336;2023-05-16T07:17:36;14.80;1.00
7028;DHT22;3555;53.248;10.336;2023-05-16T07:20:03;14.70;1.00
7028;DHT22;3555;53.248;10.336;2023-05-16T07:22:31;14.60;1.00
7028;DHT22;3555;53.248;10.336;2023-05-16T07:24:59;14.70;1.00
7028;DHT22;3555;53.248;10.336;2023-05-16T07:27:26;14.50;1.00
7028;DHT22;3555;53.248;10.336;2023-05-16T07:29:53;14.50;1.00
7028;DHT22;3555;53.248;10.336;2023-05-16T07:32:20;14.50;1.00
7028;DHT22;3555;53.248;10.336;2023-05-16T07:34:47;14.60;1.00
7028;DHT22;3555;53.248;10.336;2023-05-16T07:37:13;14.90;1.00
7028;DHT22;3555;53.248;10.336;2023-05-16T07:39:41;15.20;1.00
7028;DHT22;3555;53.248;10.336;2023-05-16T07:42:09;15.60;1.00
7028;DHT22;3555;53.248;10.336;2023-05-16T07:44:36;15.70;1.00
7028;DHT22;3555;53.248;10.336;2023-05-16T07:47:03;16.00;1.00
7028;DHT22;3555;53.248;10.336;2023-05-16T07:49:31;15.90;1.00
7028;DHT22;3555;53.248;10.336;2023-05-16T07:51:57;16.00;1.00
7028;DHT22;3555;53.248;10.336;2023-05-16T07:54:24;16.20;1.00
7028;DHT22;3555;53.248;10.336;2023-05-16T07:56:51;16.70;1.00
7028;DHT22;3555;53.248;10.336;2023-05-16T07:59:19;17.10;1.00
7028;DHT22;3555;53.248;10.336;2023-05-16T08:01:46;17.20;1.00
7028;DHT22;3555;53.248;10.336;2023-05-16T08:04:13;17.60;1.00
7028;DHT22;3555;53.248;10.336;2023-05-16T08:06:40;17.80;1.00
7028;DHT22;3555;53.248;10.336;2023-05-16T08:09:07;18.00;1.00
7028;DHT22;3555;53.248;10.336;2023-05-16T08:11:34;18.10;1.00
7028;DHT22;3555;53.248;10.336;2023-05-16T08:14:02;17.90;1.00
7028;DHT22;3555;53.248;10.336;2023-05-16T08:16:30;17.50;1.00
7028;DHT22;3555;53.248;10.336;2023-05-16T08:18:57;17.30;1.00
7028;DHT22;3555;53.248;10.336;2023-05-16T08:21:24;17.30;1.00
7028;DHT22;3555;53.248;10.336;2023-05-16T08:23:51;17.30;1.00
7028;DHT22;3555;53.248;10.336;2023-05-16T08:26:18;17.40;1.00
7028;DHT22;3555;53.248;10.336;2023-05-16T08:28:46;17.60;1.00
7028;DHT22;3555;53.248;10.336;2023-05-16T08:31:14;17.80;1.00
7028;DHT22;3555;53.248;10.336;2023-05-16T08:33:42;18.00;1.00
7028;DHT22;3555;53.248;10.336;2023-05-16T08:36:09;18.10;1.00
7028;DHT22;3555;53.248;10.336;2023-05-16T08:38:36;18.00;1.00
7028;DHT22;3555;53.248;10.336;2023-05-16T08:41:03;18.00;1.00
7028;DHT22;3555;53.248;10.336;2023-05-16T08:43:30;17.70;1.00
7028;DHT22;3555;53.248;10.336;2023-05-16T08:45:59;17.70;1.00
7028;DHT22;3555;53.248;10.336;2023-05-16T08:48:27;17.50;1.00
7028;DHT22;3555;53.248;10.336;2023-05-16T08:50:55;17.60;1.00
7028;DHT22;3555;53.248;10.336;2023-05-16T08:53:31;17.60;1.00
7028;DHT22;3555;53.248;10.336;2023-05-16T08:55:59;17.90;1.00
7028;DHT22;3555;53.248;10.336;2023-05-16T08:58:26;18.20;1.00
7028;DHT22;3555;53.248;10.336;2023-05-16T09:00:55;18.60;1.00
7028;DHT22;3555;53.248;10.336;2023-05-16T09:03:22;18.80;1.00
7028;DHT22;3555;53.248;10.336;2023-05-16T09:05:49;18.80;1.00
7028;DHT22;3555;53.248;10.336;2023-05-16T09:08:18;18.90;1.00
7028;DHT22;3555;53.248;10.336;2023-05-16T09:10:45;19.10;1.00
7028;DHT22;3555;53.248;10.336;2023-05-16T09:13:12;19.30;1.00
7028;DHT22;3555;53.248;10.336;2023-05-16T09:15:39;19.70;1.00
7028;DHT22;3555;53.248;10.336;2023-05-16T09:18:11;19.80;1.00
7028;DHT22;3555;53.248;10.336;2023-05-16T09:20:42;19.80;1.00
7028;DHT22;3555;53.248;10.336;2023-05-16T09:23:11;19.50;1.00
7028;DHT22;3555;53.248;10.336;2023-05-16T09:25:41;19.20;1.00
7028;DHT22;3555;53.248;10.336;2023-05-16T09:28:10;19.40;1.00
7028;DHT22;3555;53.248;10.336;2023-05-16T09:30:37;19.30;1.00
7028;DHT22;3555;53.248;10.336;2023-05-16T09:33:06;19.40;1.00
7028;DHT22;3555;53.248;10.336;2023-05-16T09:35:33;19.40;1.00
7028;DHT22;3555;53.248;10.336;2023-05-16T09:38:00;19.20;1.00
7028;DHT22;3555;53.248;10.336;2023-05-16T09:40:27;19.10;1.00
7028;DHT22;3555;53.248;10.336;2023-05-16T09:43:03;19.00;1.00
7028;DHT22;3555;53.248;10.336;2023-05-16T09:45:30;19.10;1.00
7028;DHT22;3555;53.248;10.336;2023-05-16T09:48:00;19.30;1.00
7028;DHT22;3555;53.248;10.336;2023-05-16T09:50:28;19.40;1.00
7028;DHT22;3555;53.248;10.336;2023-05-16T09:52:55;19.70;1.00
7028;DHT22;3555;53.248;10.336;2023-05-16T09:55:22;19.90;1.00
7028;DHT22;3555;53.248;10.336;2023-05-16T09:57:49;20.00;1.00
7028;DHT22;3555;53.248;10.336;2023-05-16T10:00:19;20.20;1.00
7028;DHT22;3555;53.248;10.336;2023-05-16T10:02:46;20.30;1.00
7028;DHT22;3555;53.248;10.336;2023-05-16T10:05:15;20.30;1.00
7028;DHT22;3555;53.248;10.336;2023-05-16T10:07:43;20.50;1.00
7028;DHT22;3555;53.248;10.336;2023-05-16T10:10:11;20.80;1.00
7028;DHT22;3555;53.248;10.336;2023-05-16T10:12:40;20.90;1.00
7028;DHT22;3555;53.248;10.336;2023-05-16T10:15:08;20.90;1.00
7028;DHT22;3555;53.248;10.336;2023-05-16T10:17:39;21.00;1.00
7028;DHT22;3555;53.248;10.336;2023-05-16T10:20:09;21.00;1.00
7028;DHT22;3555;53.248;10.336;2023-05-16T10:22:41;21.00;1.00
7028;DHT22;3555;53.248;10.336;2023-05-16T10:25:16;20.80;1.00
7028;DHT22;3555;53.248;10.336;2023-05-16T10:27:46;20.80;1.00
7028;DHT22;3555;53.248;10.336;2023-05-16T10:30:13;20.80;1.00
7028;DHT22;3555;53.248;10.336;2023-05-16T10:32:44;20.50;1.00
7028;DHT22;3555;53.248;10.336;2023-05-16T10:35:12;20.10;1.00
7028;DHT22;3555;53.248;10.336;2023-05-16T10:37:39;19.60;1.00
7028;DHT22;3555;53.248;10.336;2023-05-16T10:40:07;19.40;1.00
7028;DHT22;3555;53.248;10.336;2023-05-16T10:42:35;19.20;1.00
7028;DHT22;3555;53.248;10.336;2023-05-16T10:45:09;19.30;1.00
7028;DHT22;3555;53.248;10.336;2023-05-16T10:47:50;19.70;1.00
7028;DHT22;3555;53.248;10.336;2023-05-16T10:50:30;19.90;1.00
7028;DHT22;3555;53.248;10.336;2023-05-16T10:53:17;20.20;1.00
7028;DHT22;3555;53.248;10.336;2023-05-16T10:56:06;20.30;1.00
7028;DHT22;3555;53.248;10.336;2023-05-16T10:58:43;20.30;1.00
7028;DHT22;3555;53.248;10.336;2023-05-16T11:01:15;20.30;1.00
7028;DHT22;3555;53.248;10.336;2023-05-16T11:04:11;20.40;1.00
7028;DHT22;3555;53.248;10.336;2023-05-16T11:06:51;20.60;1.00
7028;DHT22;3555;53.248;10.336;2023-05-16T11:09:28;20.80;1.00
7028;DHT22;3555;53.248;10.336;2023-05-16T11:11:59;20.80;1.00
7028;DHT22;3555;53.248;10.336;2023-05-16T11:14:28;20.70;1.00
7028;DHT22;3555;53.248;10.336;2023-05-16T11:17:06;20.70;1.00
7028;DHT22;3555;53.248;10.336;2023-05-16T11:19:39;20.40;1.00
7028;DHT22;3555;53.248;10.336;2023-05-16T11:22:08;20.50;1.00
7028;DHT22;3555;53.248;10.336;2023-05-16T11:24:37;20.60;1.00
7028;DHT22;3555;53.248;10.336;2023-05-16T11:27:05;20.60;1.00
7028;DHT22;3555;53.248;10.336;2023-05-16T11:29:33;21.00;1.00
7028;DHT22;3555;53.248;10.336;2023-05-16T11:32:01;21.20;1.00
7028;DHT22;3555;53.248;10.336;2023-05-16T11:34:29;21.00;1.00
7028;DHT22;3555;53.248;10.336;2023-05-16T11:36:57;20.90;1.00
7028;DHT22;3555;53.248;10.336;2023-05-16T11:39:29;20.90;1.00
7028;DHT22;3555;53.248;10.336;2023-05-16T11:41:55;20.50;99.90
7028;DHT22;3555;53.248;10.336;2023-05-16T11:44:22;20.30;99.90
7028;DHT22;3555;53.248;10.336;2023-05-16T11:46:49;19.80;1.00
7028;DHT22;3555;53.248;10.336;2023-05-16T11:49:16;19.50;1.00
7028;DHT22;3555;53.248;10.336;2023-05-16T11:51:43;19.40;1.00
7028;DHT22;3555;53.248;10.336;2023-05-16T11:54:12;19.50;1.00
7028;DHT22;3555;53.248;10.336;2023-05-16T11:56:39;19.70;1.00
7028;DHT22;3555;53.248;10.336;2023-05-16T11:59:07;19.80;1.00
7028;DHT22;3555;53.248;10.336;2023-05-16T12:01:35;19.60;1.00
7028;DHT22;3555;53.248;10.336;2023-05-16T12:04:07;19.70;1.00
7028;DHT22;3555;53.248;10.336;2023-05-16T12:06:34;19.70;1.00
7028;DHT22;3555;53.248;10.336;2023-05-16T12:09:01;19.60;1.00
7028;DHT22;3555;53.248;10.336;2023-05-16T12:11:33;19.60;1.00
7028;DHT22;3555;53.248;10.336;2023-05-16T12:14:00;19.70;1.00
7028;DHT22;3555;53.248;10.336;2023-05-16T12:16:27;19.40;1.00
7028;DHT22;3555;53.248;10.336;2023-05-16T12:18:54;19.30;1.00
7028;DHT22;3555;53.248;10.336;2023-05-16T12:21:21;19.20;1.00
7028;DHT22;3555;53.248;10.336;2023-05-16T12:23:48;19.30;1.00
7028;DHT22;3555;53.248;10.336;2023-05-16T12:26:14;19.60;1.00
7028;DHT22;3555;53.248;10.336;2023-05-16T12:28:53;19.80;1.00
7028;DHT22;3555;53.248;10.336;2023-05-16T12:31:22;19.70;1.00
7028;DHT22;3555;53.248;10.336;2023-05-16T12:33:52;19.70;1.00
7028;DHT22;3555;53.248;10.336;2023-05-16T12:36:20;19.40;1.00
7028;DHT22;3555;53.248;10.336;2023-05-16T12:38:47;19.00;1.00
7028;DHT22;3555;53.248;10.336;2023-05-16T12:41:17;19.00;1.00
7028;DHT22;3555;53.248;10.336;2023-05-16T12:43:44;18.70;1.00
7028;DHT22;3555;53.248;10.336;2023-05-16T12:46:13;18.70;1.00
7028;DHT22;3555;53.248;10.336;2023-05-16T12:48:40;18.80;1.00
7028;DHT22;3555;53.248;10.336;2023-05-16T12:51:10;18.70;1.00
7028;DHT22;3555;53.248;10.336;2023-05-16T12:53:41;18.50;1.00
7028;DHT22;3555;53.248;10.336;2023-05-16T12:56:09;18.10;1.00
7028;DHT22;3555;53.248;10.336;2023-05-16T12:58:37;18.00;1.00
7028;DHT22;3555;53.248;10.336;2023-05-16T13:01:04;17.60;1.00
7028;DHT22;3555;53.248;10.336;2023-05-16T13:03:33;17.60;1.00
7028;DHT22;3555;53.248;10.336;2023-05-16T13:06:01;17.50;1.00
7028;DHT22;3555;53.248;10.336;2023-05-16T13:08:28;16.90;1.00
7028;DHT22;3555;53.248;10.336;2023-05-16T13:10:55;16.80;1.00
7028;DHT22;3555;53.248;10.336;2023-05-16T13:13:22;16.80;1.00
7028;DHT22;3555;53.248;10.336;2023-05-16T13:15:49;16.90;1.00
7028;DHT22;3555;53.248;10.336;2023-05-16T13:18:16;17.00;1.00
7028;DHT22;3555;53.248;10.336;2023-05-16T13:20:45;17.40;1.00
7028;DHT22;3555;53.248;10.336;2023-05-16T13:23:11;17.60;1.00
7028;DHT22;3555;53.248;10.336;2023-05-16T13:25:39;17.80;1.00
7028;DHT22;3555;53.248;10.336;2023-05-16T13:28:06;17.80;1.00
7028;DHT22;3555;53.248;10.336;2023-05-16T13:30:33;17.90;1.00
7028;DHT22;3555;53.248;10.336;2023-05-16T13:33:00;17.90;1.00
7028;DHT22;3555;53.248;10.336;2023-05-16T13:35:27;17.80;1.00
7028;DHT22;3555;53.248;10.336;2023-05-16T13:37:55;17.60;1.00
7028;DHT22;3555;53.248;10.336;2023-05-16T13:40:22;17.40;1.00
7028;DHT22;3555;53.248;10.336;2023-05-16T13:42:49;17.50;1.00
7028;DHT22;3555;53.248;10.336;2023-05-16T13:45:17;17.70;1.00
7028;DHT22;3555;53.248;10.336;2023-05-16T13:47:44;18.10;1.00
7028;DHT22;3555;53.248;10.336;2023-05-16T13:50:11;18.40;1.00
7028;DHT22;3555;53.248;10.336;2023-05-16T13:52:38;18.50;1.00
7028;DHT22;3555;53.248;10.336;2023-05-16T13:55:07;18.60;1.00
7028;DHT22;3555;53.248;10.336;2023-05-16T13:57:35;18.60;1.00
7028;DHT22;3555;53.248;10.336;2023-05-16T14:00:02;18.50;1.00
7028;DHT22;3555;53.248;10.336;2023-05-16T14:02:33;18.60;1.00
7028;DHT22;3555;53.248;10.336;2023-05-16T14:05:00;18.70;1.00
7028;DHT22;3555;53.248;10.336;2023-05-16T14:07:26;18.70;1.00
7028;DHT22;3555;53.248;10.336;2023-05-16T14:09:53;18.50;1.00
7028;DHT22;3555;53.248;10.336;2023-05-16T14:12:23;18.60;1.00
7028;DHT22;3555;53.248;10.336;2023-05-16T14:14:51;18.50;1.00
7028;DHT22;3555;53.248;10.336;2023-05-16T14:17:19;18.60;1.00
7028;DHT22;3555;53.248;10.336;2023-05-16T14:19:46;18.60;1.00
7028;DHT22;3555;53.248;10.336;2023-05-16T14:22:12;18.40;1.00
7028;DHT22;3555;53.248;10.336;2023-05-16T14:24:39;18.30;1.00
7028;DHT22;3555;53.248;10.336;2023-05-16T14:27:06;18.30;1.00
7028;DHT22;3555;53.248;10.336;2023-05-16T14:29:34;18.30;1.00
7028;DHT22;3555;53.248;10.336;2023-05-16T14:32:01;18.00;1.00
7028;DHT22;3555;53.248;10.336;2023-05-16T14:34:28;17.90;1.00
7028;DHT22;3555;53.248;10.336;2023-05-16T14:36:55;17.70;1.00
7028;DHT22;3555;53.248;10.336;2023-05-16T14:39:22;17.80;1.00
7028;DHT22;3555;53.248;10.336;2023-05-16T14:41:49;17.90;1.00
7028;DHT22;3555;53.248;10.336;2023-05-16T14:44:16;18.00;1.00
7028;DHT22;3555;53.248;10.336;2023-05-16T14:46:45;17.90;1.00
7028;DHT22;3555;53.248;10.336;2023-05-16T14:49:12;17.50;1.00
7028;DHT22;3555;53.248;10.336;2023-05-16T14:51:39;17.20;1.00
7028;DHT22;3555;53.248;10.336;2023-05-16T14:54:05;17.00;1.00
7028;DHT22;3555;53.248;10.336;2023-05-16T14:56:33;16.80;1.00
7028;DHT22;3555;53.248;10.336;2023-05-16T14:59:00;16.80;1.00
7028;DHT22;3555;53.248;10.336;2023-05-16T15:01:27;16.80;1.00
7028;DHT22;3555;53.248;10.336;2023-05-16T15:03:55;16.70;1.00
7028;DHT22;3555;53.248;10.336;2023-05-16T15:06:23;16.60;1.00
7028;DHT22;3555;53.248;10.336;2023-05-16T15:08:50;16.30;1.00
7028;DHT22;3555;53.248;10.336;2023-05-16T15:11:17;16.20;1.00
7028;DHT22;3555;53.248;10.336;2023-05-16T15:13:43;16.30;1.00
7028;DHT22;3555;53.248;10.336;2023-05-16T15:16:10;16.40;1.00
7028;DHT22;3555;53.248;10.336;2023-05-16T15:18:37;16.50;1.00
7028;DHT22;3555;53.248;10.336;2023-05-16T15:21:06;16.40;1.00
7028;DHT22;3555;53.248;10.336;2023-05-16T15:23:33;16.30;1.00
7028;DHT22;3555;53.248;10.336;2023-05-16T15:26:00;16.50;1.00
7028;DHT22;3555;53.248;10.336;2023-05-16T15:28:27;16.70;1.00
7028;DHT22;3555;53.248;10.336;2023-05-16T15:30:54;16.80;1.00
7028;DHT22;3555;53.248;10.336;2023-05-16T15:33:21;16.70;1.00
7028;DHT22;3555;53.248;10.336;2023-05-16T15:35:48;16.90;1.00
7028;DHT22;3555;53.248;10.336;2023-05-16T15:38:17;17.10;1.00
7028;DHT22;3555;53.248;10.336;2023-05-16T15:40:44;17.20;1.00
7028;DHT22;3555;53.248;10.336;2023-05-16T15:43:11;16.90;1.00
7028;DHT22;3555;53.248;10.336;2023-05-16T15:45:38;16.80;1.00
7028;DHT22;3555;53.248;10.336;2023-05-16T15:48:05;16.70;1.00
7028;DHT22;3555;53.248;10.336;2023-05-16T15:50:32;16.90;1.00
7028;DHT22;3555;53.248;10.336;2023-05-16T15:52:59;17.00;1.00
7028;DHT22;3555;53.248;10.336;2023-05-16T15:55:28;17.20;1.00
7028;DHT22;3555;53.248;10.336;2023-05-16T15:57:56;17.20;1.00
7028;DHT22;3555;53.248;10.336;2023-05-16T16:00:24;17.10;1.00
7028;DHT22;3555;53.248;10.336;2023-05-16T16:02:51;17.10;1.00
7028;DHT22;3555;53.248;10.336;2023-05-16T16:05:18;17.10;1.00